CheckWX is a tool to help pilots better visualize weather data.  It is not intended as a substitute for an official pre-flight weather briefing.

01:04:42 UTC

SBUG TAF
Rubem Berta Airport
Uruguaiana, Brazil
TAF SBUG 231530Z 2318/2406 36008KT 9999 FEW035 TX37/2318Z TN25/2406Z RMK PDW

Feb-23@
18:00 UTC

Feb-23 @ 18:00 UTC

Feb-24@
06:00 UTC

Feb-24 @ 06:00 UTC

TAF SBUG 231530Z 2318/2406 36008KT 9999 FEW035 TX37/2318Z TN25/2406Z RMK PDW
Wind
  • 360° at 8 KTS
Cloud Levels
  • Few at 3,500' AGL